sensor_id;sensor_type;location;lat;lon;timestamp;P1;durP1;ratioP1;P2;durP2;ratioP2
7150;SDS011;3617;48.836;9.172;2023-05-14T00:01:34;10.77;;;7.33;;
7150;SDS011;3617;48.836;9.172;2023-05-14T00:04:01;11.23;;;7.30;;
7150;SDS011;3617;48.836;9.172;2023-05-14T00:06:27;9.43;;;6.77;;
7150;SDS011;3617;48.836;9.172;2023-05-14T00:08:53;9.80;;;6.60;;
7150;SDS011;3617;48.836;9.172;2023-05-14T00:11:19;9.70;;;7.03;;
7150;SDS011;3617;48.836;9.172;2023-05-14T00:13:45;9.80;;;6.90;;
7150;SDS011;3617;48.836;9.172;2023-05-14T00:16:11;9.83;;;7.10;;
7150;SDS011;3617;48.836;9.172;2023-05-14T00:18:37;10.67;;;6.90;;
7150;SDS011;3617;48.836;9.172;2023-05-14T00:21:03;8.77;;;6.53;;
7150;SDS011;3617;48.836;9.172;2023-05-14T00:23:29;9.37;;;6.80;;
7150;SDS011;3617;48.836;9.172;2023-05-14T00:25:55;11.50;;;6.90;;
7150;SDS011;3617;48.836;9.172;2023-05-14T00:28:21;9.50;;;6.73;;
7150;SDS011;3617;48.836;9.172;2023-05-14T00:30:47;10.23;;;6.87;;
7150;SDS011;3617;48.836;9.172;2023-05-14T00:33:13;10.20;;;6.70;;
7150;SDS011;3617;48.836;9.172;2023-05-14T00:35:39;10.20;;;6.70;;
7150;SDS011;3617;48.836;9.172;2023-05-14T00:38:05;10.20;;;6.90;;
7150;SDS011;3617;48.836;9.172;2023-05-14T00:40:31;9.30;;;7.23;;
7150;SDS011;3617;48.836;9.172;2023-05-14T00:42:58;10.20;;;7.30;;
7150;SDS011;3617;48.836;9.172;2023-05-14T00:45:24;10.60;;;6.43;;
7150;SDS011;3617;48.836;9.172;2023-05-14T00:47:50;9.67;;;6.63;;
7150;SDS011;3617;48.836;9.172;2023-05-14T00:50:16;8.67;;;6.43;;
7150;SDS011;3617;48.836;9.172;2023-05-14T00:52:42;8.90;;;6.57;;
7150;SDS011;3617;48.836;9.172;2023-05-14T00:55:08;8.53;;;6.43;;
7150;SDS011;3617;48.836;9.172;2023-05-14T00:57:36;11.23;;;7.17;;
7150;SDS011;3617;48.836;9.172;2023-05-14T01:00:03;10.77;;;6.40;;
7150;SDS011;3617;48.836;9.172;2023-05-14T01:02:29;9.73;;;6.80;;
7150;SDS011;3617;48.836;9.172;2023-05-14T01:04:55;10.17;;;7.33;;
7150;SDS011;3617;48.836;9.172;2023-05-14T01:09:53;7.50;;;6.17;;
7150;SDS011;3617;48.836;9.172;2023-05-14T01:12:26;8.97;;;7.00;;
7150;SDS011;3617;48.836;9.172;2023-05-14T01:15:14;9.40;;;6.90;;
7150;SDS011;3617;48.836;9.172;2023-05-14T01:17:49;8.70;;;6.53;;
7150;SDS011;3617;48.836;9.172;2023-05-14T01:20:16;9.83;;;7.03;;
7150;SDS011;3617;48.836;9.172;2023-05-14T01:22:42;10.23;;;7.50;;
7150;SDS011;3617;48.836;9.172;2023-05-14T01:25:09;8.70;;;6.53;;
7150;SDS011;3617;48.836;9.172;2023-05-14T01:32:29;9.53;;;6.53;;
7150;SDS011;3617;48.836;9.172;2023-05-14T01:34:57;10.67;;;7.87;;
7150;SDS011;3617;48.836;9.172;2023-05-14T01:37:23;10.27;;;6.80;;
7150;SDS011;3617;48.836;9.172;2023-05-14T01:39:50;12.13;;;7.00;;
7150;SDS011;3617;48.836;9.172;2023-05-14T01:42:16;10.53;;;7.60;;
7150;SDS011;3617;48.836;9.172;2023-05-14T01:44:42;9.43;;;6.90;;
7150;SDS011;3617;48.836;9.172;2023-05-14T01:47:09;11.83;;;7.03;;
7150;SDS011;3617;48.836;9.172;2023-05-14T01:49:35;9.77;;;6.90;;
7150;SDS011;3617;48.836;9.172;2023-05-14T01:52:01;10.70;;;7.40;;
7150;SDS011;3617;48.836;9.172;2023-05-14T01:54:27;9.07;;;6.50;;
7150;SDS011;3617;48.836;9.172;2023-05-14T01:56:53;8.43;;;6.23;;
7150;SDS011;3617;48.836;9.172;2023-05-14T01:59:19;9.63;;;7.40;;
7150;SDS011;3617;48.836;9.172;2023-05-14T02:01:45;11.53;;;7.60;;
7150;SDS011;3617;48.836;9.172;2023-05-14T02:04:11;12.87;;;8.10;;
7150;SDS011;3617;48.836;9.172;2023-05-14T02:06:37;10.10;;;7.80;;
7150;SDS011;3617;48.836;9.172;2023-05-14T02:09:03;10.37;;;6.90;;
7150;SDS011;3617;48.836;9.172;2023-05-14T02:11:29;9.70;;;7.20;;
7150;SDS011;3617;48.836;9.172;2023-05-14T02:13:55;11.60;;;7.43;;
7150;SDS011;3617;48.836;9.172;2023-05-14T02:16:21;9.93;;;7.17;;
7150;SDS011;3617;48.836;9.172;2023-05-14T02:18:47;11.43;;;7.23;;
7150;SDS011;3617;48.836;9.172;2023-05-14T02:21:13;10.03;;;7.33;;
7150;SDS011;3617;48.836;9.172;2023-05-14T02:23:39;11.10;;;7.47;;
7150;SDS011;3617;48.836;9.172;2023-05-14T02:26:07;9.70;;;6.93;;
7150;SDS011;3617;48.836;9.172;2023-05-14T02:28:33;11.07;;;7.17;;
7150;SDS011;3617;48.836;9.172;2023-05-14T02:30:59;11.37;;;7.70;;
7150;SDS011;3617;48.836;9.172;2023-05-14T02:33:25;10.87;;;8.03;;
7150;SDS011;3617;48.836;9.172;2023-05-14T02:35:52;9.67;;;7.47;;
7150;SDS011;3617;48.836;9.172;2023-05-14T02:38:18;11.87;;;7.00;;
7150;SDS011;3617;48.836;9.172;2023-05-14T02:40:44;11.97;;;7.60;;
7150;SDS011;3617;48.836;9.172;2023-05-14T02:43:09;12.30;;;7.77;;
7150;SDS011;3617;48.836;9.172;2023-05-14T02:45:35;10.83;;;7.87;;
7150;SDS011;3617;48.836;9.172;2023-05-14T02:48:01;10.70;;;7.47;;
7150;SDS011;3617;48.836;9.172;2023-05-14T02:50:27;11.50;;;7.50;;
7150;SDS011;3617;48.836;9.172;2023-05-14T02:52:53;10.23;;;7.90;;
7150;SDS011;3617;48.836;9.172;2023-05-14T02:55:20;12.90;;;7.90;;
7150;SDS011;3617;48.836;9.172;2023-05-14T02:57:46;12.80;;;7.90;;
7150;SDS011;3617;48.836;9.172;2023-05-14T03:00:12;11.17;;;7.80;;
7150;SDS011;3617;48.836;9.172;2023-05-14T03:02:38;14.30;;;7.83;;
7150;SDS011;3617;48.836;9.172;2023-05-14T03:05:04;11.87;;;8.57;;
7150;SDS011;3617;48.836;9.172;2023-05-14T03:07:30;9.83;;;7.17;;
7150;SDS011;3617;48.836;9.172;2023-05-14T03:09:57;11.73;;;7.67;;
7150;SDS011;3617;48.836;9.172;2023-05-14T03:12:24;11.63;;;8.37;;
7150;SDS011;3617;48.836;9.172;2023-05-14T03:14:50;12.37;;;9.07;;
7150;SDS011;3617;48.836;9.172;2023-05-14T03:17:16;13.37;;;8.40;;
7150;SDS011;3617;48.836;9.172;2023-05-14T03:19:42;12.77;;;8.40;;
7150;SDS011;3617;48.836;9.172;2023-05-14T03:22:08;11.27;;;7.70;;
7150;SDS011;3617;48.836;9.172;2023-05-14T03:24:36;12.43;;;8.13;;
7150;SDS011;3617;48.836;9.172;2023-05-14T03:27:02;10.47;;;7.17;;
7150;SDS011;3617;48.836;9.172;2023-05-14T03:29:28;13.40;;;8.17;;
7150;SDS011;3617;48.836;9.172;2023-05-14T03:31:54;9.60;;;7.57;;
7150;SDS011;3617;48.836;9.172;2023-05-14T03:34:20;11.80;;;8.07;;
7150;SDS011;3617;48.836;9.172;2023-05-14T03:36:46;13.30;;;7.50;;
7150;SDS011;3617;48.836;9.172;2023-05-14T03:39:12;10.40;;;7.43;;
7150;SDS011;3617;48.836;9.172;2023-05-14T03:41:45;15.50;;;7.67;;
7150;SDS011;3617;48.836;9.172;2023-05-14T03:44:11;11.40;;;8.00;;
7150;SDS011;3617;48.836;9.172;2023-05-14T03:46:37;10.13;;;7.37;;
7150;SDS011;3617;48.836;9.172;2023-05-14T03:49:03;10.30;;;7.20;;
7150;SDS011;3617;48.836;9.172;2023-05-14T03:51:29;9.93;;;7.33;;
7150;SDS011;3617;48.836;9.172;2023-05-14T03:53:55;10.97;;;7.77;;
7150;SDS011;3617;48.836;9.172;2023-05-14T03:56:24;9.40;;;6.67;;
7150;SDS011;3617;48.836;9.172;2023-05-14T03:58:51;9.70;;;6.87;;
7150;SDS011;3617;48.836;9.172;2023-05-14T04:01:17;10.70;;;7.57;;
7150;SDS011;3617;48.836;9.172;2023-05-14T04:03:43;10.60;;;7.37;;
7150;SDS011;3617;48.836;9.172;2023-05-14T04:06:09;10.97;;;7.00;;
7150;SDS011;3617;48.836;9.172;2023-05-14T04:08:35;11.53;;;7.50;;
7150;SDS011;3617;48.836;9.172;2023-05-14T04:11:01;9.23;;;6.80;;
7150;SDS011;3617;48.836;9.172;2023-05-14T04:13:27;10.57;;;7.07;;
7150;SDS011;3617;48.836;9.172;2023-05-14T04:15:53;11.93;;;7.60;;
7150;SDS011;3617;48.836;9.172;2023-05-14T04:18:19;9.27;;;6.60;;
7150;SDS011;3617;48.836;9.172;2023-05-14T04:20:45;10.20;;;6.87;;
7150;SDS011;3617;48.836;9.172;2023-05-14T04:23:11;9.60;;;6.67;;
7150;SDS011;3617;48.836;9.172;2023-05-14T04:25:37;9.70;;;7.30;;
7150;SDS011;3617;48.836;9.172;2023-05-14T04:28:03;9.10;;;6.37;;
7150;SDS011;3617;48.836;9.172;2023-05-14T04:30:29;9.30;;;6.77;;
7150;SDS011;3617;48.836;9.172;2023-05-14T04:32:55;12.53;;;6.70;;
7150;SDS011;3617;48.836;9.172;2023-05-14T04:35:21;10.20;;;7.07;;
7150;SDS011;3617;48.836;9.172;2023-05-14T04:37:47;9.57;;;7.13;;
7150;SDS011;3617;48.836;9.172;2023-05-14T04:40:13;9.90;;;7.27;;
7150;SDS011;3617;48.836;9.172;2023-05-14T04:42:40;11.70;;;7.40;;
7150;SDS011;3617;48.836;9.172;2023-05-14T04:45:07;9.33;;;6.47;;
7150;SDS011;3617;48.836;9.172;2023-05-14T04:47:33;9.10;;;6.40;;
7150;SDS011;3617;48.836;9.172;2023-05-14T04:49:59;11.27;;;6.87;;
7150;SDS011;3617;48.836;9.172;2023-05-14T04:52:25;9.60;;;7.10;;
7150;SDS011;3617;48.836;9.172;2023-05-14T04:54:51;9.03;;;6.90;;
7150;SDS011;3617;48.836;9.172;2023-05-14T04:57:18;9.27;;;6.40;;
7150;SDS011;3617;48.836;9.172;2023-05-14T04:59:44;9.37;;;6.47;;
7150;SDS011;3617;48.836;9.172;2023-05-14T05:02:09;9.10;;;6.43;;
7150;SDS011;3617;48.836;9.172;2023-05-14T05:04:35;9.73;;;6.53;;
7150;SDS011;3617;48.836;9.172;2023-05-14T05:07:01;8.90;;;6.80;;
7150;SDS011;3617;48.836;9.172;2023-05-14T05:09:27;8.53;;;6.10;;
7150;SDS011;3617;48.836;9.172;2023-05-14T05:11:53;9.33;;;6.17;;
7150;SDS011;3617;48.836;9.172;2023-05-14T05:14:20;8.73;;;6.23;;
7150;SDS011;3617;48.836;9.172;2023-05-14T05:16:46;11.33;;;6.03;;
7150;SDS011;3617;48.836;9.172;2023-05-14T05:19:11;8.03;;;5.77;;
7150;SDS011;3617;48.836;9.172;2023-05-14T05:21:37;9.27;;;6.30;;
7150;SDS011;3617;48.836;9.172;2023-05-14T05:24:05;8.53;;;5.93;;
7150;SDS011;3617;48.836;9.172;2023-05-14T05:26:31;9.93;;;6.67;;
7150;SDS011;3617;48.836;9.172;2023-05-14T05:28:57;9.17;;;6.23;;
7150;SDS011;3617;48.836;9.172;2023-05-14T05:31:23;8.40;;;5.90;;
7150;SDS011;3617;48.836;9.172;2023-05-14T05:33:49;8.17;;;5.93;;
7150;SDS011;3617;48.836;9.172;2023-05-14T05:36:15;8.43;;;5.70;;
7150;SDS011;3617;48.836;9.172;2023-05-14T05:38:41;8.97;;;6.20;;
7150;SDS011;3617;48.836;9.172;2023-05-14T05:41:07;6.97;;;5.10;;
7150;SDS011;3617;48.836;9.172;2023-05-14T05:43:33;11.00;;;5.53;;
7150;SDS011;3617;48.836;9.172;2023-05-14T05:45:59;7.63;;;6.00;;
7150;SDS011;3617;48.836;9.172;2023-05-14T05:48:25;8.73;;;5.80;;
7150;SDS011;3617;48.836;9.172;2023-05-14T05:50:52;7.90;;;6.00;;
7150;SDS011;3617;48.836;9.172;2023-05-14T05:53:18;8.30;;;5.80;;
7150;SDS011;3617;48.836;9.172;2023-05-14T05:55:44;9.70;;;5.97;;
7150;SDS011;3617;48.836;9.172;2023-05-14T05:58:10;8.37;;;5.90;;
7150;SDS011;3617;48.836;9.172;2023-05-14T06:00:39;7.17;;;5.33;;
7150;SDS011;3617;48.836;9.172;2023-05-14T06:03:05;7.77;;;5.53;;
7150;SDS011;3617;48.836;9.172;2023-05-14T06:05:31;8.70;;;5.80;;
7150;SDS011;3617;48.836;9.172;2023-05-14T06:07:57;8.33;;;5.53;;
7150;SDS011;3617;48.836;9.172;2023-05-14T06:10:23;8.23;;;5.50;;
7150;SDS011;3617;48.836;9.172;2023-05-14T06:12:49;8.97;;;5.70;;
7150;SDS011;3617;48.836;9.172;2023-05-14T06:15:15;8.90;;;5.77;;
7150;SDS011;3617;48.836;9.172;2023-05-14T06:17:41;7.30;;;5.60;;
7150;SDS011;3617;48.836;9.172;2023-05-14T06:20:07;8.27;;;5.23;;
7150;SDS011;3617;48.836;9.172;2023-05-14T06:22:33;7.03;;;5.40;;
7150;SDS011;3617;48.836;9.172;2023-05-14T06:24:59;7.33;;;5.37;;
7150;SDS011;3617;48.836;9.172;2023-05-14T06:27:25;8.47;;;6.23;;
7150;SDS011;3617;48.836;9.172;2023-05-14T06:29:51;7.27;;;5.40;;
7150;SDS011;3617;48.836;9.172;2023-05-14T06:32:17;6.43;;;4.97;;
7150;SDS011;3617;48.836;9.172;2023-05-14T06:34:43;7.70;;;5.97;;
7150;SDS011;3617;48.836;9.172;2023-05-14T06:37:09;10.80;;;6.07;;
7150;SDS011;3617;48.836;9.172;2023-05-14T06:39:36;8.17;;;5.93;;
7150;SDS011;3617;48.836;9.172;2023-05-14T06:42:02;7.87;;;5.10;;
7150;SDS011;3617;48.836;9.172;2023-05-14T06:44:28;6.63;;;5.33;;
7150;SDS011;3617;48.836;9.172;2023-05-14T06:46:54;7.37;;;5.40;;
7150;SDS011;3617;48.836;9.172;2023-05-14T06:49:21;9.33;;;5.83;;
7150;SDS011;3617;48.836;9.172;2023-05-14T06:51:47;7.03;;;5.50;;
7150;SDS011;3617;48.836;9.172;2023-05-14T06:54:13;6.87;;;5.50;;
7150;SDS011;3617;48.836;9.172;2023-05-14T06:56:39;7.47;;;5.20;;
7150;SDS011;3617;48.836;9.172;2023-05-14T06:59:05;8.23;;;5.50;;
7150;SDS011;3617;48.836;9.172;2023-05-14T07:01:31;8.17;;;5.53;;
7150;SDS011;3617;48.836;9.172;2023-05-14T07:03:57;7.80;;;5.80;;
7150;SDS011;3617;48.836;9.172;2023-05-14T07:06:23;7.87;;;5.57;;
7150;SDS011;3617;48.836;9.172;2023-05-14T07:08:49;7.57;;;5.40;;
7150;SDS011;3617;48.836;9.172;2023-05-14T07:11:15;9.27;;;5.50;;
7150;SDS011;3617;48.836;9.172;2023-05-14T07:13:41;7.10;;;5.20;;
7150;SDS011;3617;48.836;9.172;2023-05-14T07:16:07;8.90;;;5.40;;
7150;SDS011;3617;48.836;9.172;2023-05-14T07:18:36;7.57;;;5.60;;
7150;SDS011;3617;48.836;9.172;2023-05-14T07:21:02;8.40;;;5.67;;
7150;SDS011;3617;48.836;9.172;2023-05-14T07:23:32;9.07;;;5.90;;
7150;SDS011;3617;48.836;9.172;2023-05-14T07:26:00;7.87;;;5.80;;
7150;SDS011;3617;48.836;9.172;2023-05-14T07:28:26;7.50;;;5.83;;
7150;SDS011;3617;48.836;9.172;2023-05-14T07:30:52;7.57;;;5.67;;
7150;SDS011;3617;48.836;9.172;2023-05-14T07:33:17;9.37;;;6.10;;
7150;SDS011;3617;48.836;9.172;2023-05-14T07:35:43;7.63;;;5.43;;
7150;SDS011;3617;48.836;9.172;2023-05-14T07:38:10;7.77;;;5.83;;
7150;SDS011;3617;48.836;9.172;2023-05-14T07:40:36;7.67;;;5.57;;
7150;SDS011;3617;48.836;9.172;2023-05-14T07:43:02;7.23;;;5.60;;
7150;SDS011;3617;48.836;9.172;2023-05-14T07:45:28;6.80;;;5.27;;
7150;SDS011;3617;48.836;9.172;2023-05-14T07:47:54;7.70;;;5.60;;
7150;SDS011;3617;48.836;9.172;2023-05-14T07:50:20;7.83;;;5.90;;
7150;SDS011;3617;48.836;9.172;2023-05-14T07:52:46;8.00;;;5.60;;
7150;SDS011;3617;48.836;9.172;2023-05-14T07:55:12;7.57;;;5.50;;
7150;SDS011;3617;48.836;9.172;2023-05-14T07:57:38;9.57;;;6.13;;
7150;SDS011;3617;48.836;9.172;2023-05-14T08:00:04;7.18;;;5.05;;
7150;SDS011;3617;48.836;9.172;2023-05-14T08:02:33;8.40;;;5.32;;
7150;SDS011;3617;48.836;9.172;2023-05-14T08:04:59;7.22;;;4.88;;
7150;SDS011;3617;48.836;9.172;2023-05-14T08:07:25;6.53;;;5.28;;
7150;SDS011;3617;48.836;9.172;2023-05-14T08:09:53;7.47;;;5.15;;
7150;SDS011;3617;48.836;9.172;2023-05-14T08:12:19;7.65;;;4.93;;
7150;SDS011;3617;48.836;9.172;2023-05-14T08:14:45;6.72;;;4.80;;
7150;SDS011;3617;48.836;9.172;2023-05-14T08:17:12;6.97;;;5.35;;
7150;SDS011;3617;48.836;9.172;2023-05-14T08:19:38;6.43;;;4.78;;
7150;SDS011;3617;48.836;9.172;2023-05-14T08:22:04;5.72;;;4.90;;
7150;SDS011;3617;48.836;9.172;2023-05-14T08:24:31;7.43;;;5.53;;
7150;SDS011;3617;48.836;9.172;2023-05-14T08:26:57;8.55;;;5.25;;
7150;SDS011;3617;48.836;9.172;2023-05-14T08:29:23;7.47;;;5.10;;
7150;SDS011;3617;48.836;9.172;2023-05-14T08:31:49;5.90;;;5.05;;
7150;SDS011;3617;48.836;9.172;2023-05-14T08:34:16;6.28;;;5.07;;
7150;SDS011;3617;48.836;9.172;2023-05-14T08:36:42;7.68;;;5.60;;
7150;SDS011;3617;48.836;9.172;2023-05-14T08:39:08;8.13;;;6.13;;
7150;SDS011;3617;48.836;9.172;2023-05-14T08:41:34;7.13;;;5.47;;
7150;SDS011;3617;48.836;9.172;2023-05-14T08:44:14;7.30;;;5.63;;
7150;SDS011;3617;48.836;9.172;2023-05-14T08:46:43;7.50;;;5.35;;
7150;SDS011;3617;48.836;9.172;2023-05-14T08:49:13;8.82;;;5.75;;
7150;SDS011;3617;48.836;9.172;2023-05-14T08:51:41;7.25;;;5.18;;
7150;SDS011;3617;48.836;9.172;2023-05-14T08:54:08;7.15;;;5.70;;
7150;SDS011;3617;48.836;9.172;2023-05-14T08:56:35;8.32;;;6.25;;
7150;SDS011;3617;48.836;9.172;2023-05-14T08:59:02;6.82;;;5.40;;
7150;SDS011;3617;48.836;9.172;2023-05-14T09:01:28;8.27;;;6.40;;
7150;SDS011;3617;48.836;9.172;2023-05-14T09:03:54;8.30;;;6.30;;
7150;SDS011;3617;48.836;9.172;2023-05-14T09:06:21;7.88;;;5.32;;
7150;SDS011;3617;48.836;9.172;2023-05-14T09:08:47;7.10;;;5.68;;
7150;SDS011;3617;48.836;9.172;2023-05-14T09:11:13;7.13;;;5.28;;
7150;SDS011;3617;48.836;9.172;2023-05-14T09:13:39;8.20;;;5.45;;
7150;SDS011;3617;48.836;9.172;2023-05-14T09:16:05;12.10;;;8.02;;
7150;SDS011;3617;48.836;9.172;2023-05-14T09:18:31;6.45;;;5.50;;
7150;SDS011;3617;48.836;9.172;2023-05-14T09:20:57;6.57;;;5.65;;
7150;SDS011;3617;48.836;9.172;2023-05-14T09:23:28;6.82;;;6.13;;
7150;SDS011;3617;48.836;9.172;2023-05-14T09:25:57;7.80;;;5.93;;
7150;SDS011;3617;48.836;9.172;2023-05-14T09:28:23;5.80;;;5.20;;
7150;SDS011;3617;48.836;9.172;2023-05-14T09:30:52;7.18;;;5.70;;
7150;SDS011;3617;48.836;9.172;2023-05-14T09:33:24;7.22;;;5.38;;
7150;SDS011;3617;48.836;9.172;2023-05-14T09:35:53;6.65;;;5.38;;
7150;SDS011;3617;48.836;9.172;2023-05-14T09:38:20;7.18;;;5.50;;
7150;SDS011;3617;48.836;9.172;2023-05-14T09:40:48;6.38;;;5.53;;
7150;SDS011;3617;48.836;9.172;2023-05-14T09:43:15;6.32;;;5.28;;
7150;SDS011;3617;48.836;9.172;2023-05-14T09:45:41;7.43;;;5.80;;
7150;SDS011;3617;48.836;9.172;2023-05-14T09:48:07;7.53;;;5.43;;
7150;SDS011;3617;48.836;9.172;2023-05-14T09:50:40;7.07;;;5.30;;
7150;SDS011;3617;48.836;9.172;2023-05-14T09:53:06;6.40;;;5.22;;
7150;SDS011;3617;48.836;9.172;2023-05-14T09:55:32;6.55;;;5.35;;
7150;SDS011;3617;48.836;9.172;2023-05-14T09:58:00;9.40;;;6.05;;
7150;SDS011;3617;48.836;9.172;2023-05-14T10:00:26;6.47;;;5.25;;
7150;SDS011;3617;48.836;9.172;2023-05-14T10:02:52;7.60;;;5.60;;
7150;SDS011;3617;48.836;9.172;2023-05-14T10:05:20;7.50;;;4.97;;
7150;SDS011;3617;48.836;9.172;2023-05-14T10:07:47;6.15;;;4.85;;
7150;SDS011;3617;48.836;9.172;2023-05-14T10:10:14;5.80;;;4.55;;
7150;SDS011;3617;48.836;9.172;2023-05-14T10:12:41;5.68;;;4.50;;
7150;SDS011;3617;48.836;9.172;2023-05-14T10:15:12;6.85;;;4.88;;
7150;SDS011;3617;48.836;9.172;2023-05-14T10:17:42;6.22;;;4.72;;
7150;SDS011;3617;48.836;9.172;2023-05-14T10:20:09;6.38;;;4.57;;
7150;SDS011;3617;48.836;9.172;2023-05-14T10:22:36;6.90;;;4.53;;
7150;SDS011;3617;48.836;9.172;2023-05-14T10:25:03;6.30;;;4.90;;
7150;SDS011;3617;48.836;9.172;2023-05-14T10:27:29;5.70;;;4.43;;
7150;SDS011;3617;48.836;9.172;2023-05-14T10:29:56;7.45;;;4.75;;
7150;SDS011;3617;48.836;9.172;2023-05-14T10:32:22;6.70;;;5.00;;
7150;SDS011;3617;48.836;9.172;2023-05-14T10:34:49;5.93;;;4.57;;
7150;SDS011;3617;48.836;9.172;2023-05-14T10:37:17;5.60;;;4.40;;
7150;SDS011;3617;48.836;9.172;2023-05-14T10:39:48;6.40;;;4.70;;
7150;SDS011;3617;48.836;9.172;2023-05-14T10:42:18;7.55;;;5.13;;
7150;SDS011;3617;48.836;9.172;2023-05-14T10:44:46;6.03;;;4.70;;
7150;SDS011;3617;48.836;9.172;2023-05-14T10:47:12;6.50;;;4.57;;
7150;SDS011;3617;48.836;9.172;2023-05-14T10:49:38;7.95;;;5.30;;
7150;SDS011;3617;48.836;9.172;2023-05-14T10:52:07;8.23;;;5.40;;
7150;SDS011;3617;48.836;9.172;2023-05-14T10:54:36;6.47;;;4.88;;
7150;SDS011;3617;48.836;9.172;2023-05-14T10:57:02;6.30;;;4.97;;
7150;SDS011;3617;48.836;9.172;2023-05-14T10:59:28;5.88;;;4.75;;
7150;SDS011;3617;48.836;9.172;2023-05-14T11:01:57;6.47;;;5.10;;
7150;SDS011;3617;48.836;9.172;2023-05-14T11:04:23;5.50;;;4.60;;
7150;SDS011;3617;48.836;9.172;2023-05-14T11:06:50;5.95;;;4.60;;
7150;SDS011;3617;48.836;9.172;2023-05-14T11:09:16;5.35;;;3.83;;
7150;SDS011;3617;48.836;9.172;2023-05-14T11:11:43;4.72;;;3.83;;
7150;SDS011;3617;48.836;9.172;2023-05-14T11:14:09;6.13;;;4.35;;
7150;SDS011;3617;48.836;9.172;2023-05-14T11:16:35;5.32;;;4.07;;
7150;SDS011;3617;48.836;9.172;2023-05-14T11:19:02;6.35;;;4.82;;
7150;SDS011;3617;48.836;9.172;2023-05-14T11:21:29;6.57;;;4.03;;
7150;SDS011;3617;48.836;9.172;2023-05-14T11:24:00;7.57;;;4.40;;
7150;SDS011;3617;48.836;9.172;2023-05-14T11:26:30;5.47;;;4.68;;
7150;SDS011;3617;48.836;9.172;2023-05-14T11:28:56;7.38;;;5.32;;
7150;SDS011;3617;48.836;9.172;2023-05-14T11:31:22;4.72;;;4.20;;
7150;SDS011;3617;48.836;9.172;2023-05-14T11:33:50;5.75;;;3.95;;
7150;SDS011;3617;48.836;9.172;2023-05-14T11:36:17;5.43;;;3.90;;
7150;SDS011;3617;48.836;9.172;2023-05-14T11:38:46;5.25;;;3.70;;
7150;SDS011;3617;48.836;9.172;2023-05-14T11:41:13;5.20;;;3.78;;
7150;SDS011;3617;48.836;9.172;2023-05-14T11:43:40;4.93;;;4.07;;
7150;SDS011;3617;48.836;9.172;2023-05-14T11:46:06;4.65;;;3.45;;
7150;SDS011;3617;48.836;9.172;2023-05-14T11:48:32;5.28;;;3.53;;
7150;SDS011;3617;48.836;9.172;2023-05-14T11:50:58;4.10;;;3.15;;
7150;SDS011;3617;48.836;9.172;2023-05-14T11:53:25;5.00;;;4.00;;
7150;SDS011;3617;48.836;9.172;2023-05-14T11:55:51;4.53;;;3.58;;
7150;SDS011;3617;48.836;9.172;2023-05-14T11:58:24;4.20;;;3.58;;
7150;SDS011;3617;48.836;9.172;2023-05-14T12:00:54;4.47;;;3.63;;
7150;SDS011;3617;48.836;9.172;2023-05-14T12:03:20;3.90;;;3.40;;
7150;SDS011;3617;48.836;9.172;2023-05-14T12:08:23;4.65;;;3.67;;
7150;SDS011;3617;48.836;9.172;2023-05-14T12:10:51;4.70;;;3.85;;
7150;SDS011;3617;48.836;9.172;2023-05-14T12:13:17;4.95;;;4.00;;
7150;SDS011;3617;48.836;9.172;2023-05-14T12:15:44;5.28;;;4.30;;
7150;SDS011;3617;48.836;9.172;2023-05-14T12:18:11;4.95;;;3.85;;
7150;SDS011;3617;48.836;9.172;2023-05-14T12:20:37;5.53;;;3.97;;
7150;SDS011;3617;48.836;9.172;2023-05-14T12:23:03;7.00;;;4.40;;
7150;SDS011;3617;48.836;9.172;2023-05-14T12:25:29;4.60;;;4.10;;
7150;SDS011;3617;48.836;9.172;2023-05-14T12:27:55;4.80;;;3.92;;
7150;SDS011;3617;48.836;9.172;2023-05-14T12:30:21;5.00;;;3.70;;
7150;SDS011;3617;48.836;9.172;2023-05-14T12:32:47;4.88;;;3.95;;
7150;SDS011;3617;48.836;9.172;2023-05-14T12:35:15;5.43;;;3.85;;
7150;SDS011;3617;48.836;9.172;2023-05-14T12:37:41;4.88;;;3.42;;
7150;SDS011;3617;48.836;9.172;2023-05-14T12:40:07;4.13;;;3.45;;
7150;SDS011;3617;48.836;9.172;2023-05-14T12:42:33;4.53;;;3.38;;
7150;SDS011;3617;48.836;9.172;2023-05-14T12:45:00;4.55;;;3.67;;
7150;SDS011;3617;48.836;9.172;2023-05-14T12:47:29;5.67;;;3.63;;
7150;SDS011;3617;48.836;9.172;2023-05-14T12:49:56;4.38;;;3.25;;
7150;SDS011;3617;48.836;9.172;2023-05-14T12:52:22;4.57;;;3.57;;
7150;SDS011;3617;48.836;9.172;2023-05-14T12:54:48;6.15;;;4.15;;
7150;SDS011;3617;48.836;9.172;2023-05-14T12:57:14;4.20;;;3.25;;
7150;SDS011;3617;48.836;9.172;2023-05-14T12:59:40;3.92;;;3.40;;
7150;SDS011;3617;48.836;9.172;2023-05-14T13:02:06;3.83;;;3.10;;
7150;SDS011;3617;48.836;9.172;2023-05-14T13:04:32;4.72;;;3.20;;
7150;SDS011;3617;48.836;9.172;2023-05-14T13:06:58;4.40;;;3.50;;
7150;SDS011;3617;48.836;9.172;2023-05-14T13:09:24;4.70;;;3.40;;
7150;SDS011;3617;48.836;9.172;2023-05-14T13:11:51;5.43;;;3.10;;
7150;SDS011;3617;48.836;9.172;2023-05-14T13:14:17;3.45;;;3.15;;
7150;SDS011;3617;48.836;9.172;2023-05-14T13:16:43;5.18;;;3.15;;
7150;SDS011;3617;48.836;9.172;2023-05-14T13:19:09;4.38;;;3.15;;
7150;SDS011;3617;48.836;9.172;2023-05-14T13:21:35;4.03;;;3.28;;
7150;SDS011;3617;48.836;9.172;2023-05-14T13:24:01;3.25;;;2.92;;
7150;SDS011;3617;48.836;9.172;2023-05-14T13:26:28;4.45;;;3.35;;
7150;SDS011;3617;48.836;9.172;2023-05-14T13:28:54;5.03;;;3.78;;
7150;SDS011;3617;48.836;9.172;2023-05-14T13:31:20;3.63;;;3.17;;
7150;SDS011;3617;48.836;9.172;2023-05-14T13:33:46;4.55;;;3.03;;
7150;SDS011;3617;48.836;9.172;2023-05-14T13:36:12;3.92;;;3.50;;
7150;SDS011;3617;48.836;9.172;2023-05-14T13:38:38;4.63;;;3.45;;
7150;SDS011;3617;48.836;9.172;2023-05-14T13:41:04;4.45;;;3.33;;
7150;SDS011;3617;48.836;9.172;2023-05-14T13:43:31;4.05;;;3.58;;
7150;SDS011;3617;48.836;9.172;2023-05-14T13:45:57;4.72;;;3.45;;
7150;SDS011;3617;48.836;9.172;2023-05-14T13:48:24;4.00;;;3.10;;
7150;SDS011;3617;48.836;9.172;2023-05-14T13:50:50;2.97;;;2.67;;
7150;SDS011;3617;48.836;9.172;2023-05-14T13:53:17;3.05;;;2.75;;
7150;SDS011;3617;48.836;9.172;2023-05-14T13:55:43;2.80;;;2.42;;
7150;SDS011;3617;48.836;9.172;2023-05-14T13:58:09;3.95;;;2.78;;
7150;SDS011;3617;48.836;9.172;2023-05-14T14:00:35;3.42;;;2.53;;
7150;SDS011;3617;48.836;9.172;2023-05-14T14:03:01;2.65;;;2.40;;
7150;SDS011;3617;48.836;9.172;2023-05-14T14:05:27;3.40;;;2.40;;
7150;SDS011;3617;48.836;9.172;2023-05-14T14:07:54;3.17;;;2.47;;
7150;SDS011;3617;48.836;9.172;2023-05-14T14:10:20;2.40;;;2.20;;
7150;SDS011;3617;48.836;9.172;2023-05-14T14:12:46;3.08;;;2.50;;
7150;SDS011;3617;48.836;9.172;2023-05-14T14:15:12;3.63;;;2.38;;
7150;SDS011;3617;48.836;9.172;2023-05-14T14:17:38;4.03;;;2.80;;
7150;SDS011;3617;48.836;9.172;2023-05-14T14:20:07;3.60;;;3.30;;
7150;SDS011;3617;48.836;9.172;2023-05-14T14:22:33;2.92;;;2.53;;
7150;SDS011;3617;48.836;9.172;2023-05-14T14:24:59;3.42;;;2.92;;
7150;SDS011;3617;48.836;9.172;2023-05-14T14:27:25;3.88;;;2.78;;
7150;SDS011;3617;48.836;9.172;2023-05-14T14:29:51;3.30;;;2.92;;
7150;SDS011;3617;48.836;9.172;2023-05-14T14:32:17;3.05;;;2.55;;
7150;SDS011;3617;48.836;9.172;2023-05-14T14:34:44;3.33;;;2.70;;
7150;SDS011;3617;48.836;9.172;2023-05-14T14:37:10;3.55;;;2.67;;
7150;SDS011;3617;48.836;9.172;2023-05-14T14:39:36;3.13;;;2.63;;
7150;SDS011;3617;48.836;9.172;2023-05-14T14:42:02;2.33;;;2.13;;
7150;SDS011;3617;48.836;9.172;2023-05-14T14:44:28;2.35;;;2.10;;
7150;SDS011;3617;48.836;9.172;2023-05-14T14:46:54;2.65;;;2.15;;
7150;SDS011;3617;48.836;9.172;2023-05-14T14:49:20;3.17;;;2.33;;
7150;SDS011;3617;48.836;9.172;2023-05-14T14:51:46;2.50;;;2.28;;
7150;SDS011;3617;48.836;9.172;2023-05-14T14:54:12;3.08;;;2.30;;
7150;SDS011;3617;48.836;9.172;2023-05-14T14:56:38;2.70;;;2.25;;
7150;SDS011;3617;48.836;9.172;2023-05-14T14:59:05;4.95;;;2.78;;
7150;SDS011;3617;48.836;9.172;2023-05-14T15:01:31;2.53;;;2.20;;
7150;SDS011;3617;48.836;9.172;2023-05-14T15:03:57;4.55;;;2.72;;
7150;SDS011;3617;48.836;9.172;2023-05-14T15:06:23;3.38;;;2.47;;
7150;SDS011;3617;48.836;9.172;2023-05-14T15:08:49;3.05;;;2.42;;
7150;SDS011;3617;48.836;9.172;2023-05-14T15:11:15;3.08;;;2.47;;
7150;SDS011;3617;48.836;9.172;2023-05-14T15:13:41;3.13;;;2.30;;
7150;SDS011;3617;48.836;9.172;2023-05-14T15:16:07;2.95;;;2.38;;
7150;SDS011;3617;48.836;9.172;2023-05-14T15:18:33;3.20;;;2.50;;